sensor_id;sensor_type;location;lat;lon;timestamp;P1;durP1;ratioP1;P2;durP2;ratioP2
51020;SDS011;38907;45.562;8.856;2023-12-29T00:01:35;24.98;;;21.05;;
51020;SDS011;38907;45.562;8.856;2023-12-29T00:06:37;26.20;;;20.65;;
51020;SDS011;38907;45.562;8.856;2023-12-29T00:11:41;30.27;;;21.30;;
51020;SDS011;38907;45.562;8.856;2023-12-29T00:16:43;27.52;;;21.13;;
51020;SDS011;38907;45.562;8.856;2023-12-29T00:21:45;26.25;;;19.80;;
51020;SDS011;38907;45.562;8.856;2023-12-29T00:26:48;24.67;;;19.27;;
51020;SDS011;38907;45.562;8.856;2023-12-29T00:31:50;28.58;;;21.00;;
51020;SDS011;38907;45.562;8.856;2023-12-29T00:36:52;25.02;;;19.98;;
51020;SDS011;38907;45.562;8.856;2023-12-29T00:41:55;23.98;;;20.35;;
51020;SDS011;38907;45.562;8.856;2023-12-29T00:51:59;27.52;;;21.35;;
51020;SDS011;38907;45.562;8.856;2023-12-29T00:57:04;27.45;;;21.23;;
51020;SDS011;38907;45.562;8.856;2023-12-29T01:02:06;28.20;;;20.38;;
51020;SDS011;38907;45.562;8.856;2023-12-29T01:07:08;28.17;;;20.73;;
51020;SDS011;38907;45.562;8.856;2023-12-29T01:12:11;24.85;;;20.13;;
51020;SDS011;38907;45.562;8.856;2023-12-29T01:17:15;24.38;;;19.23;;
51020;SDS011;38907;45.562;8.856;2023-12-29T01:22:16;28.98;;;20.92;;
51020;SDS011;38907;45.562;8.856;2023-12-29T01:27:20;24.50;;;20.23;;
51020;SDS011;38907;45.562;8.856;2023-12-29T01:32:21;26.58;;;20.75;;
51020;SDS011;38907;45.562;8.856;2023-12-29T01:37:23;26.73;;;20.88;;
51020;SDS011;38907;45.562;8.856;2023-12-29T01:42:26;25.67;;;21.00;;
51020;SDS011;38907;45.562;8.856;2023-12-29T01:47:28;27.15;;;22.02;;
51020;SDS011;38907;45.562;8.856;2023-12-29T01:52:30;26.42;;;22.55;;
51020;SDS011;38907;45.562;8.856;2023-12-29T01:57:33;31.02;;;22.15;;
51020;SDS011;38907;45.562;8.856;2023-12-29T02:02:36;29.40;;;22.33;;
51020;SDS011;38907;45.562;8.856;2023-12-29T02:07:38;24.63;;;21.77;;
51020;SDS011;38907;45.562;8.856;2023-12-29T02:12:42;26.23;;;21.77;;
51020;SDS011;38907;45.562;8.856;2023-12-29T02:17:47;25.10;;;21.35;;
51020;SDS011;38907;45.562;8.856;2023-12-29T02:22:58;30.50;;;23.85;;
51020;SDS011;38907;45.562;8.856;2023-12-29T02:28:03;27.40;;;22.17;;
51020;SDS011;38907;45.562;8.856;2023-12-29T02:33:12;25.13;;;21.60;;
51020;SDS011;38907;45.562;8.856;2023-12-29T02:38:20;28.60;;;22.75;;
51020;SDS011;38907;45.562;8.856;2023-12-29T02:43:23;24.40;;;21.25;;
51020;SDS011;38907;45.562;8.856;2023-12-29T02:48:25;24.45;;;21.38;;
51020;SDS011;38907;45.562;8.856;2023-12-29T02:53:27;28.20;;;22.30;;
51020;SDS011;38907;45.562;8.856;2023-12-29T02:58:30;27.35;;;21.13;;
51020;SDS011;38907;45.562;8.856;2023-12-29T03:03:32;27.33;;;21.95;;
51020;SDS011;38907;45.562;8.856;2023-12-29T03:08:34;26.80;;;22.27;;
51020;SDS011;38907;45.562;8.856;2023-12-29T03:13:37;28.38;;;22.00;;
51020;SDS011;38907;45.562;8.856;2023-12-29T03:18:39;28.55;;;22.35;;
51020;SDS011;38907;45.562;8.856;2023-12-29T03:23:41;28.58;;;22.25;;
51020;SDS011;38907;45.562;8.856;2023-12-29T03:28:45;25.55;;;21.83;;
51020;SDS011;38907;45.562;8.856;2023-12-29T03:33:47;27.00;;;22.13;;
51020;SDS011;38907;45.562;8.856;2023-12-29T03:38:48;31.30;;;21.80;;
51020;SDS011;38907;45.562;8.856;2023-12-29T03:43:52;25.95;;;21.17;;
51020;SDS011;38907;45.562;8.856;2023-12-29T03:53:55;30.75;;;23.35;;
51020;SDS011;38907;45.562;8.856;2023-12-29T03:58:59;30.45;;;24.15;;
51020;SDS011;38907;45.562;8.856;2023-12-29T04:04:01;27.33;;;22.45;;
51020;SDS011;38907;45.562;8.856;2023-12-29T04:09:03;30.08;;;23.63;;
51020;SDS011;38907;45.562;8.856;2023-12-29T04:14:06;33.33;;;24.65;;
51020;SDS011;38907;45.562;8.856;2023-12-29T04:19:12;30.50;;;22.73;;
51020;SDS011;38907;45.562;8.856;2023-12-29T04:24:14;30.48;;;24.35;;
51020;SDS011;38907;45.562;8.856;2023-12-29T04:29:17;29.73;;;22.45;;
51020;SDS011;38907;45.562;8.856;2023-12-29T04:34:19;28.10;;;22.80;;
51020;SDS011;38907;45.562;8.856;2023-12-29T04:39:21;28.83;;;23.85;;
51020;SDS011;38907;45.562;8.856;2023-12-29T04:44:24;29.08;;;22.65;;
51020;SDS011;38907;45.562;8.856;2023-12-29T04:49:26;32.88;;;23.70;;
51020;SDS011;38907;45.562;8.856;2023-12-29T04:54:28;31.13;;;24.92;;
51020;SDS011;38907;45.562;8.856;2023-12-29T04:59:31;28.60;;;23.17;;
51020;SDS011;38907;45.562;8.856;2023-12-29T05:04:33;28.80;;;23.70;;
51020;SDS011;38907;45.562;8.856;2023-12-29T05:09:34;26.88;;;22.98;;
51020;SDS011;38907;45.562;8.856;2023-12-29T05:14:38;28.38;;;22.73;;
51020;SDS011;38907;45.562;8.856;2023-12-29T05:19:40;28.75;;;23.67;;
51020;SDS011;38907;45.562;8.856;2023-12-29T05:24:42;30.00;;;23.50;;
51020;SDS011;38907;45.562;8.856;2023-12-29T05:29:45;28.48;;;23.15;;
51020;SDS011;38907;45.562;8.856;2023-12-29T05:34:47;31.38;;;23.05;;
51020;SDS011;38907;45.562;8.856;2023-12-29T05:39:49;28.55;;;23.58;;
51020;SDS011;38907;45.562;8.856;2023-12-29T05:44:52;27.40;;;22.98;;
51020;SDS011;38907;45.562;8.856;2023-12-29T05:49:54;27.98;;;22.85;;
51020;SDS011;38907;45.562;8.856;2023-12-29T05:54:56;26.15;;;21.63;;
51020;SDS011;38907;45.562;8.856;2023-12-29T05:59:59;26.05;;;22.10;;
51020;SDS011;38907;45.562;8.856;2023-12-29T06:05:01;24.38;;;21.05;;
51020;SDS011;38907;45.562;8.856;2023-12-29T06:10:03;24.85;;;19.63;;
51020;SDS011;38907;45.562;8.856;2023-12-29T06:15:08;24.00;;;19.03;;
51020;SDS011;38907;45.562;8.856;2023-12-29T06:20:10;20.40;;;17.45;;
51020;SDS011;38907;45.562;8.856;2023-12-29T06:25:12;20.48;;;16.95;;
51020;SDS011;38907;45.562;8.856;2023-12-29T06:30:16;22.05;;;16.55;;
51020;SDS011;38907;45.562;8.856;2023-12-29T06:35:18;18.77;;;15.25;;
51020;SDS011;38907;45.562;8.856;2023-12-29T06:40:20;18.95;;;15.43;;
51020;SDS011;38907;45.562;8.856;2023-12-29T06:45:24;19.90;;;16.55;;
51020;SDS011;38907;45.562;8.856;2023-12-29T06:50:25;22.17;;;15.85;;
51020;SDS011;38907;45.562;8.856;2023-12-29T06:55:27;23.02;;;17.23;;
51020;SDS011;38907;45.562;8.856;2023-12-29T07:00:30;29.17;;;16.33;;
51020;SDS011;38907;45.562;8.856;2023-12-29T07:05:33;22.17;;;16.98;;
51020;SDS011;38907;45.562;8.856;2023-12-29T07:10:35;18.60;;;15.55;;
51020;SDS011;38907;45.562;8.856;2023-12-29T07:15:38;18.88;;;15.00;;
51020;SDS011;38907;45.562;8.856;2023-12-29T07:20:40;18.13;;;15.82;;
51020;SDS011;38907;45.562;8.856;2023-12-29T07:25:43;18.45;;;16.33;;
51020;SDS011;38907;45.562;8.856;2023-12-29T07:30:46;20.67;;;16.55;;
51020;SDS011;38907;45.562;8.856;2023-12-29T07:35:48;18.75;;;16.13;;
51020;SDS011;38907;45.562;8.856;2023-12-29T07:40:50;25.85;;;16.95;;
51020;SDS011;38907;45.562;8.856;2023-12-29T07:45:53;21.08;;;16.58;;
51020;SDS011;38907;45.562;8.856;2023-12-29T07:50:55;21.17;;;16.45;;
51020;SDS011;38907;45.562;8.856;2023-12-29T07:56:05;22.67;;;16.45;;
51020;SDS011;38907;45.562;8.856;2023-12-29T08:01:09;19.23;;;16.23;;
51020;SDS011;38907;45.562;8.856;2023-12-29T08:06:11;24.50;;;17.10;;
51020;SDS011;38907;45.562;8.856;2023-12-29T08:11:13;29.60;;;20.13;;
51020;SDS011;38907;45.562;8.856;2023-12-29T08:16:17;24.60;;;18.80;;
51020;SDS011;38907;45.562;8.856;2023-12-29T08:21:19;26.50;;;19.70;;
51020;SDS011;38907;45.562;8.856;2023-12-29T08:26:21;28.38;;;18.85;;
51020;SDS011;38907;45.562;8.856;2023-12-29T08:31:24;23.45;;;17.20;;
51020;SDS011;38907;45.562;8.856;2023-12-29T08:36:27;20.95;;;16.50;;
51020;SDS011;38907;45.562;8.856;2023-12-29T08:41:29;19.92;;;15.10;;
51020;SDS011;38907;45.562;8.856;2023-12-29T08:46:32;26.80;;;18.27;;
51020;SDS011;38907;45.562;8.856;2023-12-29T08:51:34;31.70;;;21.17;;
51020;SDS011;38907;45.562;8.856;2023-12-29T08:56:36;27.70;;;19.73;;
51020;SDS011;38907;45.562;8.856;2023-12-29T09:01:39;31.02;;;27.02;;
51020;SDS011;38907;45.562;8.856;2023-12-29T09:06:41;32.15;;;22.27;;
51020;SDS011;38907;45.562;8.856;2023-12-29T09:11:43;35.83;;;23.88;;
51020;SDS011;38907;45.562;8.856;2023-12-29T09:16:47;34.53;;;21.83;;
51020;SDS011;38907;45.562;8.856;2023-12-29T09:21:49;24.55;;;17.08;;
51020;SDS011;38907;45.562;8.856;2023-12-29T09:26:51;19.73;;;16.58;;
51020;SDS011;38907;45.562;8.856;2023-12-29T09:31:55;20.38;;;16.20;;
51020;SDS011;38907;45.562;8.856;2023-12-29T09:36:57;21.08;;;15.98;;
51020;SDS011;38907;45.562;8.856;2023-12-29T09:41:59;22.80;;;17.00;;
51020;SDS011;38907;45.562;8.856;2023-12-29T09:47:05;20.95;;;16.00;;
51020;SDS011;38907;45.562;8.856;2023-12-29T09:52:09;22.45;;;16.67;;
51020;SDS011;38907;45.562;8.856;2023-12-29T09:57:13;23.08;;;16.95;;
51020;SDS011;38907;45.562;8.856;2023-12-29T10:02:17;18.85;;;16.77;;
51020;SDS011;38907;45.562;8.856;2023-12-29T10:07:20;20.52;;;16.23;;
51020;SDS011;38907;45.562;8.856;2023-12-29T10:12:25;18.55;;;14.55;;
51020;SDS011;38907;45.562;8.856;2023-12-29T10:17:33;22.20;;;14.60;;
51020;SDS011;38907;45.562;8.856;2023-12-29T10:22:44;19.70;;;15.55;;
51020;SDS011;38907;45.562;8.856;2023-12-29T10:27:52;21.27;;;15.63;;
51020;SDS011;38907;45.562;8.856;2023-12-29T10:32:55;73.53;;;55.70;;
51020;SDS011;38907;45.562;8.856;2023-12-29T10:38:07;24.00;;;18.65;;
51020;SDS011;38907;45.562;8.856;2023-12-29T10:43:10;29.40;;;21.60;;
51020;SDS011;38907;45.562;8.856;2023-12-29T10:48:14;27.38;;;20.00;;
51020;SDS011;38907;45.562;8.856;2023-12-29T10:53:24;27.92;;;20.92;;
51020;SDS011;38907;45.562;8.856;2023-12-29T10:58:25;29.25;;;20.00;;
51020;SDS011;38907;45.562;8.856;2023-12-29T11:03:30;27.27;;;18.45;;
51020;SDS011;38907;45.562;8.856;2023-12-29T11:08:32;26.05;;;19.90;;
51020;SDS011;38907;45.562;8.856;2023-12-29T11:13:36;27.20;;;20.80;;
51020;SDS011;38907;45.562;8.856;2023-12-29T11:18:40;22.80;;;19.55;;
51020;SDS011;38907;45.562;8.856;2023-12-29T11:23:43;30.73;;;20.70;;
51020;SDS011;38907;45.562;8.856;2023-12-29T11:28:46;39.47;;;21.48;;
51020;SDS011;38907;45.562;8.856;2023-12-29T11:33:50;27.90;;;20.13;;
51020;SDS011;38907;45.562;8.856;2023-12-29T11:38:58;30.60;;;22.30;;
51020;SDS011;38907;45.562;8.856;2023-12-29T11:44:05;23.27;;;18.23;;
51020;SDS011;38907;45.562;8.856;2023-12-29T11:49:09;29.35;;;22.73;;
51020;SDS011;38907;45.562;8.856;2023-12-29T11:54:21;31.02;;;22.85;;
51020;SDS011;38907;45.562;8.856;2023-12-29T11:59:24;27.27;;;19.50;;
51020;SDS011;38907;45.562;8.856;2023-12-29T12:04:35;25.52;;;20.52;;
51020;SDS011;38907;45.562;8.856;2023-12-29T12:09:39;28.77;;;20.33;;
51020;SDS011;38907;45.562;8.856;2023-12-29T12:14:45;27.45;;;21.10;;
51020;SDS011;38907;45.562;8.856;2023-12-29T12:19:50;29.13;;;23.63;;
51020;SDS011;38907;45.562;8.856;2023-12-29T12:24:55;30.08;;;24.52;;
51020;SDS011;38907;45.562;8.856;2023-12-29T12:29:58;26.40;;;23.48;;
51020;SDS011;38907;45.562;8.856;2023-12-29T12:35:02;32.42;;;24.02;;
51020;SDS011;38907;45.562;8.856;2023-12-29T12:40:05;29.98;;;24.92;;
51020;SDS011;38907;45.562;8.856;2023-12-29T12:45:11;35.08;;;28.95;;
51020;SDS011;38907;45.562;8.856;2023-12-29T12:50:19;31.77;;;27.63;;
51020;SDS011;38907;45.562;8.856;2023-12-29T12:55:22;35.75;;;29.08;;
51020;SDS011;38907;45.562;8.856;2023-12-29T13:00:23;36.95;;;26.77;;
51020;SDS011;38907;45.562;8.856;2023-12-29T13:05:28;27.67;;;22.17;;
51020;SDS011;38907;45.562;8.856;2023-12-29T13:10:31;27.90;;;23.58;;
51020;SDS011;38907;45.562;8.856;2023-12-29T13:15:33;27.90;;;22.35;;
51020;SDS011;38907;45.562;8.856;2023-12-29T13:20:44;25.95;;;20.65;;
51020;SDS011;38907;45.562;8.856;2023-12-29T13:25:46;27.88;;;21.02;;
51020;SDS011;38907;45.562;8.856;2023-12-29T13:30:48;24.17;;;20.95;;
51020;SDS011;38907;45.562;8.856;2023-12-29T13:35:53;25.77;;;22.15;;
51020;SDS011;38907;45.562;8.856;2023-12-29T13:41:00;29.60;;;20.65;;
51020;SDS011;38907;45.562;8.856;2023-12-29T13:46:05;23.17;;;19.13;;
51020;SDS011;38907;45.562;8.856;2023-12-29T13:51:10;25.85;;;20.45;;
51020;SDS011;38907;45.562;8.856;2023-12-29T13:56:12;27.90;;;23.42;;
51020;SDS011;38907;45.562;8.856;2023-12-29T14:01:14;22.35;;;19.67;;
51020;SDS011;38907;45.562;8.856;2023-12-29T14:06:26;25.20;;;21.27;;
51020;SDS011;38907;45.562;8.856;2023-12-29T14:11:31;29.07;;;21.30;;
51020;SDS011;38907;45.562;8.856;2023-12-29T14:16:38;24.38;;;20.75;;
51020;SDS011;38907;45.562;8.856;2023-12-29T14:21:41;24.10;;;21.15;;
51020;SDS011;38907;45.562;8.856;2023-12-29T14:26:53;23.83;;;21.05;;
51020;SDS011;38907;45.562;8.856;2023-12-29T14:31:57;28.23;;;22.33;;
51020;SDS011;38907;45.562;8.856;2023-12-29T14:37:01;26.13;;;21.20;;
51020;SDS011;38907;45.562;8.856;2023-12-29T14:42:03;24.02;;;20.48;;
51020;SDS011;38907;45.562;8.856;2023-12-29T14:47:05;23.90;;;19.55;;
51020;SDS011;38907;45.562;8.856;2023-12-29T14:52:08;25.90;;;19.58;;
51020;SDS011;38907;45.562;8.856;2023-12-29T14:57:10;24.20;;;21.08;;
51020;SDS011;38907;45.562;8.856;2023-12-29T15:02:12;26.25;;;21.27;;
51020;SDS011;38907;45.562;8.856;2023-12-29T15:07:15;28.25;;;23.48;;
51020;SDS011;38907;45.562;8.856;2023-12-29T15:12:18;25.63;;;19.65;;
51020;SDS011;38907;45.562;8.856;2023-12-29T15:17:19;28.52;;;22.02;;
51020;SDS011;38907;45.562;8.856;2023-12-29T15:22:23;28.40;;;21.23;;
51020;SDS011;38907;45.562;8.856;2023-12-29T15:27:26;24.48;;;20.50;;
51020;SDS011;38907;45.562;8.856;2023-12-29T15:32:28;27.58;;;18.40;;
51020;SDS011;38907;45.562;8.856;2023-12-29T15:37:31;27.38;;;19.08;;
51020;SDS011;38907;45.562;8.856;2023-12-29T15:42:33;22.27;;;18.58;;
51020;SDS011;38907;45.562;8.856;2023-12-29T15:47:34;24.80;;;20.75;;
51020;SDS011;38907;45.562;8.856;2023-12-29T15:52:38;34.50;;;25.27;;
51020;SDS011;38907;45.562;8.856;2023-12-29T15:57:39;42.67;;;35.08;;
51020;SDS011;38907;45.562;8.856;2023-12-29T16:02:41;39.50;;;31.25;;
51020;SDS011;38907;45.562;8.856;2023-12-29T16:07:44;33.67;;;27.30;;
51020;SDS011;38907;45.562;8.856;2023-12-29T16:12:46;28.65;;;23.15;;
51020;SDS011;38907;45.562;8.856;2023-12-29T16:17:48;35.03;;;24.20;;
51020;SDS011;38907;45.562;8.856;2023-12-29T16:22:51;31.40;;;23.23;;
51020;SDS011;38907;45.562;8.856;2023-12-29T16:27:53;25.58;;;20.42;;
51020;SDS011;38907;45.562;8.856;2023-12-29T16:32:55;27.73;;;20.35;;
51020;SDS011;38907;45.562;8.856;2023-12-29T16:37:59;24.30;;;20.45;;
51020;SDS011;38907;45.562;8.856;2023-12-29T16:43:01;29.83;;;21.90;;
51020;SDS011;38907;45.562;8.856;2023-12-29T16:48:03;31.38;;;22.13;;
51020;SDS011;38907;45.562;8.856;2023-12-29T16:53:06;28.65;;;22.58;;
51020;SDS011;38907;45.562;8.856;2023-12-29T16:58:08;22.35;;;19.25;;
51020;SDS011;38907;45.562;8.856;2023-12-29T17:03:11;28.25;;;22.35;;
51020;SDS011;38907;45.562;8.856;2023-12-29T17:08:14;32.55;;;25.00;;
51020;SDS011;38907;45.562;8.856;2023-12-29T17:18:18;30.15;;;23.17;;
51020;SDS011;38907;45.562;8.856;2023-12-29T17:23:21;35.78;;;22.50;;
51020;SDS011;38907;45.562;8.856;2023-12-29T17:28:23;28.83;;;20.98;;
51020;SDS011;38907;45.562;8.856;2023-12-29T17:33:25;32.13;;;21.65;;
51020;SDS011;38907;45.562;8.856;2023-12-29T17:38:28;32.58;;;23.67;;
51020;SDS011;38907;45.562;8.856;2023-12-29T17:43:30;32.25;;;23.75;;
51020;SDS011;38907;45.562;8.856;2023-12-29T17:48:32;29.55;;;23.35;;
51020;SDS011;38907;45.562;8.856;2023-12-29T17:53:35;29.10;;;24.70;;
51020;SDS011;38907;45.562;8.856;2023-12-29T18:03:39;31.00;;;24.17;;
51020;SDS011;38907;45.562;8.856;2023-12-29T18:08:43;35.60;;;24.60;;
51020;SDS011;38907;45.562;8.856;2023-12-29T18:13:44;32.88;;;24.88;;
51020;SDS011;38907;45.562;8.856;2023-12-29T18:18:46;34.58;;;25.50;;
51020;SDS011;38907;45.562;8.856;2023-12-29T18:23:49;30.85;;;25.90;;
51020;SDS011;38907;45.562;8.856;2023-12-29T18:28:51;31.90;;;26.65;;
51020;SDS011;38907;45.562;8.856;2023-12-29T18:33:53;30.65;;;25.73;;
51020;SDS011;38907;45.562;8.856;2023-12-29T18:38:58;38.00;;;29.20;;
51020;SDS011;38907;45.562;8.856;2023-12-29T18:43:59;37.78;;;28.90;;
51020;SDS011;38907;45.562;8.856;2023-12-29T18:49:01;38.42;;;29.25;;
51020;SDS011;38907;45.562;8.856;2023-12-29T18:59:11;38.03;;;30.40;;
51020;SDS011;38907;45.562;8.856;2023-12-29T19:04:13;42.97;;;29.52;;
51020;SDS011;38907;45.562;8.856;2023-12-29T19:09:16;35.72;;;28.77;;
51020;SDS011;38907;45.562;8.856;2023-12-29T19:14:18;45.22;;;30.90;;
51020;SDS011;38907;45.562;8.856;2023-12-29T19:19:21;36.27;;;28.13;;
51020;SDS011;38907;45.562;8.856;2023-12-29T19:24:25;38.83;;;29.60;;
51020;SDS011;38907;45.562;8.856;2023-12-29T19:29:27;40.45;;;29.38;;
51020;SDS011;38907;45.562;8.856;2023-12-29T19:34:29;45.45;;;32.03;;
51020;SDS011;38907;45.562;8.856;2023-12-29T19:39:32;44.83;;;34.53;;
51020;SDS011;38907;45.562;8.856;2023-12-29T19:44:34;41.00;;;32.95;;
51020;SDS011;38907;45.562;8.856;2023-12-29T19:49:36;41.75;;;31.65;;
51020;SDS011;38907;45.562;8.856;2023-12-29T19:54:39;56.00;;;38.95;;
51020;SDS011;38907;45.562;8.856;2023-12-29T19:59:41;69.43;;;47.58;;
51020;SDS011;38907;45.562;8.856;2023-12-29T20:04:45;40.42;;;31.95;;
51020;SDS011;38907;45.562;8.856;2023-12-29T20:09:49;42.78;;;31.63;;
51020;SDS011;38907;45.562;8.856;2023-12-29T20:14:51;40.88;;;32.15;;
51020;SDS011;38907;45.562;8.856;2023-12-29T20:19:54;43.33;;;32.28;;
51020;SDS011;38907;45.562;8.856;2023-12-29T20:24:58;44.45;;;32.35;;
51020;SDS011;38907;45.562;8.856;2023-12-29T20:30:00;39.97;;;31.27;;
51020;SDS011;38907;45.562;8.856;2023-12-29T20:35:02;43.15;;;33.17;;
51020;SDS011;38907;45.562;8.856;2023-12-29T20:40:06;41.83;;;32.15;;
51020;SDS011;38907;45.562;8.856;2023-12-29T20:45:09;41.58;;;31.00;;
51020;SDS011;38907;45.562;8.856;2023-12-29T20:50:11;40.75;;;31.33;;
51020;SDS011;38907;45.562;8.856;2023-12-29T20:55:14;39.35;;;30.20;;
51020;SDS011;38907;45.562;8.856;2023-12-29T21:00:16;38.15;;;30.27;;
51020;SDS011;38907;45.562;8.856;2023-12-29T21:05:19;38.47;;;31.10;;
51020;SDS011;38907;45.562;8.856;2023-12-29T21:10:22;34.15;;;27.80;;
51020;SDS011;38907;45.562;8.856;2023-12-29T21:15:24;35.00;;;25.58;;
51020;SDS011;38907;45.562;8.856;2023-12-29T21:20:26;37.17;;;25.50;;
51020;SDS011;38907;45.562;8.856;2023-12-29T21:25:29;31.67;;;24.52;;
51020;SDS011;38907;45.562;8.856;2023-12-29T21:30:33;32.80;;;25.88;;
51020;SDS011;38907;45.562;8.856;2023-12-29T21:35:35;32.13;;;24.50;;
51020;SDS011;38907;45.562;8.856;2023-12-29T21:40:38;31.65;;;22.85;;
51020;SDS011;38907;45.562;8.856;2023-12-29T21:45:40;27.58;;;22.90;;
51020;SDS011;38907;45.562;8.856;2023-12-29T21:50:42;28.75;;;23.77;;
51020;SDS011;38907;45.562;8.856;2023-12-29T21:55:46;33.22;;;22.20;;
51020;SDS011;38907;45.562;8.856;2023-12-29T22:00:47;28.77;;;20.65;;
51020;SDS011;38907;45.562;8.856;2023-12-29T22:05:49;29.02;;;21.33;;
51020;SDS011;38907;45.562;8.856;2023-12-29T22:10:52;33.60;;;20.98;;
51020;SDS011;38907;45.562;8.856;2023-12-29T22:15:54;30.92;;;22.02;;
51020;SDS011;38907;45.562;8.856;2023-12-29T22:20:57;29.30;;;21.83;;
51020;SDS011;38907;45.562;8.856;2023-12-29T22:26:00;29.27;;;21.65;;
51020;SDS011;38907;45.562;8.856;2023-12-29T22:31:02;27.27;;;21.73;;
51020;SDS011;38907;45.562;8.856;2023-12-29T22:36:08;30.33;;;22.63;;
51020;SDS011;38907;45.562;8.856;2023-12-29T22:41:12;27.55;;;21.75;;
51020;SDS011;38907;45.562;8.856;2023-12-29T22:46:16;26.98;;;19.20;;
51020;SDS011;38907;45.562;8.856;2023-12-29T22:51:19;25.73;;;19.00;;
51020;SDS011;38907;45.562;8.856;2023-12-29T22:56:22;24.90;;;18.75;;
51020;SDS011;38907;45.562;8.856;2023-12-29T23:01:25;24.63;;;20.73;;
51020;SDS011;38907;45.562;8.856;2023-12-29T23:06:27;24.17;;;18.17;;
51020;SDS011;38907;45.562;8.856;2023-12-29T23:11:31;25.90;;;17.98;;
51020;SDS011;38907;45.562;8.856;2023-12-29T23:16:34;24.13;;;17.38;;
51020;SDS011;38907;45.562;8.856;2023-12-29T23:21:37;21.67;;;18.45;;
51020;SDS011;38907;45.562;8.856;2023-12-29T23:26:40;22.65;;;17.85;;
51020;SDS011;38907;45.562;8.856;2023-12-29T23:31:44;22.90;;;17.58;;
51020;SDS011;38907;45.562;8.856;2023-12-29T23:36:46;30.50;;;18.45;;
51020;SDS011;38907;45.562;8.856;2023-12-29T23:41:50;23.70;;;18.38;;
51020;SDS011;38907;45.562;8.856;2023-12-29T23:46:51;23.83;;;19.08;;
51020;SDS011;38907;45.562;8.856;2023-12-29T23:51:53;25.23;;;20.13;;
51020;SDS011;38907;45.562;8.856;2023-12-29T23:56:56;29.90;;;22.95;;
